createdAt,value
2022-10-01T00:03:04.384Z,109.05
2022-10-01T00:06:22.265Z,108.97
2022-10-01T00:09:30.268Z,89.75
2022-10-01T00:12:36.411Z,80.40
2022-10-01T00:15:42.669Z,107.67
2022-10-01T00:18:52.519Z,88.58
2022-10-01T00:21:59.020Z,63.45
2022-10-01T00:25:07.615Z,44.58
2022-10-01T00:28:14.247Z,53.40
2022-10-01T00:31:22.694Z,38.40
2022-10-01T00:34:29.330Z,38.90
2022-10-01T00:37:35.362Z,45.40
2022-10-01T00:40:41.400Z,37.75
2022-10-01T00:43:55.440Z,47.62
2022-10-01T00:47:01.448Z,34.73
2022-10-01T00:50:15.470Z,29.02
2022-10-01T00:53:24.348Z,32.73
2022-10-01T00:56:32.090Z,36.93
2022-10-01T00:59:37.553Z,19.07
2022-10-01T01:02:44.012Z,23.40
2022-10-01T01:05:49.307Z,26.02
2022-10-01T01:08:58.106Z,21.75
2022-10-01T01:12:27.210Z,20.80
2022-10-01T01:15:55.982Z,19.92
2022-10-01T01:19:17.082Z,22.95
2022-10-01T01:22:23.583Z,18.98
2022-10-01T01:25:35.795Z,19.20
2022-10-01T01:28:53.336Z,21.85
2022-10-01T01:32:00.116Z,19.37
2022-10-01T01:35:07.283Z,20.70
2022-10-01T01:38:22.628Z,23.80
2022-10-01T01:41:27.788Z,20.10
2022-10-01T01:44:40.772Z,20.52
2022-10-01T01:47:46.842Z,22.85
2022-10-01T01:51:04.132Z,21.12
2022-10-01T01:54:09.570Z,25.35
2022-10-01T01:57:15.420Z,26.00
2022-10-01T02:00:24.049Z,28.35
2022-10-01T02:03:31.644Z,24.15
2022-10-01T02:06:51.952Z,27.55
2022-10-01T02:10:24.532Z,29.10
2022-10-01T02:14:16.206Z,27.50
2022-10-01T02:17:33.236Z,40.10
2022-10-01T02:20:55.403Z,40.28
2022-10-01T02:24:39.488Z,33.08
2022-10-01T02:28:10.448Z,38.25
2022-10-01T02:31:16.348Z,52.00
2022-10-01T02:34:26.555Z,34.08
2022-10-01T02:37:35.467Z,27.67
2022-10-01T02:40:44.326Z,30.30
2022-10-01T02:43:58.065Z,25.90
2022-10-01T02:47:13.321Z,37.33
2022-10-01T02:50:19.525Z,36.13
2022-10-01T02:53:30.352Z,40.03
2022-10-01T02:56:48.196Z,46.40
2022-10-01T02:59:45.547Z,38.48
2022-10-01T03:02:51.472Z,57.90
2022-10-01T03:05:57.776Z,44.95
2022-10-01T03:09:04.719Z,53.52
2022-10-01T03:12:10.979Z,45.48
2022-10-01T03:15:16.855Z,56.28
2022-10-01T03:18:22.465Z,37.90
2022-10-01T03:21:28.333Z,38.05
2022-10-01T03:24:34.005Z,41.90
2022-10-01T03:27:39.478Z,31.20
2022-10-01T03:30:45.866Z,23.52
2022-10-01T03:33:52.106Z,24.12
2022-10-01T03:36:59.681Z,30.10
2022-10-01T03:40:06.242Z,36.80
2022-10-01T03:43:11.285Z,22.75
2022-10-01T03:46:18.637Z,28.32
2022-10-01T03:49:23.781Z,30.57
2022-10-01T03:52:31.173Z,36.20
2022-10-01T03:55:39.563Z,49.33
2022-10-01T03:58:45.709Z,52.60
2022-10-01T04:01:53.662Z,45.17
2022-10-01T04:04:58.559Z,81.53
2022-10-01T04:08:05.137Z,92.78
2022-10-01T04:11:10.079Z,88.30
2022-10-01T04:14:15.511Z,76.07
2022-10-01T04:17:23.452Z,80.97
2022-10-01T04:20:28.734Z,56.35
2022-10-01T04:23:33.814Z,71.97
2022-10-01T04:26:39.805Z,83.67
2022-10-01T04:29:45.022Z,53.28
2022-10-01T04:32:53.927Z,74.45
2022-10-01T04:36:00.747Z,68.97
2022-10-01T04:39:08.089Z,43.50
2022-10-01T04:42:12.841Z,49.40
2022-10-01T04:45:18.576Z,40.30
2022-10-01T04:48:23.914Z,42.85
2022-10-01T04:51:30.431Z,21.17
2022-10-01T04:54:36.715Z,23.95
2022-10-01T04:57:42.349Z,22.42
2022-10-01T05:00:48.179Z,15.58
2022-10-01T05:03:54.298Z,14.25
2022-10-01T05:07:00.544Z,14.70
2022-10-01T05:10:07.057Z,17.20
2022-10-01T05:13:12.635Z,13.70
2022-10-01T05:16:18.539Z,15.28
2022-10-01T05:19:28.008Z,16.32
2022-10-01T05:22:32.397Z,21.70
2022-10-01T05:25:37.848Z,16.15
2022-10-01T05:28:45.328Z,19.52
2022-10-01T05:31:52.021Z,18.40
2022-10-01T05:34:59.964Z,17.07
2022-10-01T05:38:11.265Z,17.82
2022-10-01T05:41:17.615Z,21.07
2022-10-01T05:44:23.069Z,22.22
2022-10-01T05:47:31.581Z,20.90
2022-10-01T05:50:39.633Z,21.70
2022-10-01T05:53:50.543Z,19.25
2022-10-01T05:56:56.154Z,20.77
2022-10-01T06:00:04.269Z,21.42
2022-10-01T06:03:12.444Z,24.72
2022-10-01T06:06:19.413Z,21.80
2022-10-01T06:09:25.715Z,21.00
2022-10-01T06:12:31.908Z,21.23
2022-10-01T06:15:38.707Z,20.50
2022-10-01T06:18:45.039Z,23.92
2022-10-01T06:21:50.571Z,21.57
2022-10-01T06:24:58.467Z,20.30
2022-10-01T06:28:12.673Z,23.10
2022-10-01T06:31:17.602Z,22.73
2022-10-01T06:34:22.784Z,18.75
2022-10-01T06:37:29.031Z,16.93
2022-10-01T06:40:36.656Z,16.73
2022-10-01T06:43:44.726Z,17.48
2022-10-01T06:46:53.674Z,17.87
2022-10-01T06:49:59.608Z,21.75
2022-10-01T06:53:06.685Z,18.80
2022-10-01T09:06:27.164Z,10.40
2022-10-01T09:12:25.282Z,11.15
2022-10-01T09:15:39.901Z,16.93
2022-10-01T09:19:05.884Z,12.63
2022-10-01T09:22:13.326Z,14.10
2022-10-01T09:25:41.517Z,14.78
2022-10-01T09:28:52.598Z,13.62
2022-10-01T09:32:00.910Z,13.80
2022-10-01T09:35:08.630Z,14.98
2022-10-01T09:38:39.645Z,10.32
2022-10-01T09:41:45.973Z,11.95
2022-10-01T09:44:54.888Z,12.00
2022-10-01T09:48:04.805Z,11.53
2022-10-01T09:51:18.724Z,10.43
2022-10-01T09:54:57.660Z,11.35
2022-10-01T09:58:29.512Z,14.20
2022-10-01T10:01:43.940Z,11.15
2022-10-01T10:04:52.624Z,12.40
2022-10-01T10:08:15.324Z,9.95
2022-10-01T10:11:24.383Z,12.07
2022-10-01T10:14:37.719Z,12.40
2022-10-01T10:17:46.788Z,13.03
2022-10-01T10:20:59.000Z,10.50
2022-10-01T10:24:08.500Z,12.43
2022-10-01T10:27:16.880Z,10.03
2022-10-01T10:30:33.486Z,13.45
2022-10-01T10:33:41.550Z,13.58
2022-10-01T10:36:51.426Z,10.15
2022-10-01T10:40:03.552Z,8.38
2022-10-01T10:43:10.515Z,9.08
2022-10-01T10:46:17.024Z,7.10
2022-10-01T10:49:40.633Z,12.25
2022-10-01T10:52:50.477Z,14.20
2022-10-01T10:56:00.273Z,11.85
2022-10-01T10:59:09.017Z,13.05
2022-10-01T11:02:17.360Z,10.70
2022-10-01T11:05:36.524Z,13.72
2022-10-01T11:08:42.825Z,10.03
2022-10-01T11:12:04.670Z,7.58
2022-10-01T11:15:36.427Z,10.05
2022-10-01T11:19:09.205Z,8.78
2022-10-01T11:22:36.034Z,9.88
2022-10-01T11:26:02.854Z,11.35
2022-10-01T11:29:40.773Z,12.05
2022-10-01T11:33:07.433Z,7.10
2022-10-01T11:36:44.273Z,9.73
2022-10-01T11:39:49.362Z,15.28
2022-10-01T11:42:55.450Z,12.33
2022-10-01T11:46:06.273Z,8.23
2022-10-01T11:49:15.115Z,8.45
2022-10-01T11:52:49.772Z,9.60
2022-10-01T11:56:21.721Z,7.70
2022-10-01T11:59:47.175Z,8.28
2022-10-01T12:03:10.895Z,10.93
2022-10-01T12:06:26.104Z,8.53
2022-10-01T12:09:58.444Z,8.63
2022-10-01T12:13:19.978Z,8.73
2022-10-01T12:17:02.361Z,6.85
2022-10-01T12:20:11.212Z,7.47
2022-10-01T12:23:19.457Z,8.68
2022-10-01T12:26:57.286Z,6.05
2022-10-01T12:30:32.506Z,8.20
2022-10-01T12:33:50.999Z,8.28
2022-10-01T12:37:20.853Z,8.65
2022-10-01T12:41:02.538Z,12.10
2022-10-01T12:44:56.751Z,6.17
2022-10-01T12:48:30.558Z,7.28
2022-10-01T12:51:59.263Z,6.78
2022-10-01T12:55:19.918Z,5.90
2022-10-01T12:58:42.893Z,8.65
2022-10-01T13:02:00.919Z,8.80
2022-10-01T13:05:32.751Z,6.47
2022-10-01T13:08:58.040Z,6.87
2022-10-01T13:12:41.151Z,6.28
2022-10-01T13:15:52.076Z,4.37
2022-10-01T13:19:23.377Z,5.05
2022-10-01T13:22:42.886Z,3.92
2022-10-01T13:25:55.796Z,2.55
2022-10-01T13:29:40.523Z,4.35
2022-10-01T13:33:09.289Z,5.12
2022-10-01T13:36:20.123Z,2.20
2022-10-01T13:39:35.606Z,3.60
2022-10-01T13:42:53.806Z,4.25
2022-10-01T13:46:02.978Z,7.22
2022-10-01T13:49:09.825Z,6.42
2022-10-01T13:52:14.882Z,7.70
2022-10-01T13:55:40.939Z,13.45
2022-10-01T13:58:52.789Z,16.25
2022-10-01T14:02:00.517Z,12.20
2022-10-01T14:05:09.621Z,11.97
2022-10-01T14:08:32.254Z,12.58
2022-10-01T14:11:58.812Z,11.80
2022-10-01T14:15:31.258Z,7.62
2022-10-01T14:18:39.842Z,8.15
2022-10-01T14:21:58.962Z,8.33
2022-10-01T14:25:25.996Z,8.75
2022-10-01T14:28:53.995Z,14.47
2022-10-01T14:32:17.676Z,16.75
2022-10-01T14:35:31.128Z,14.87
2022-10-01T14:38:36.341Z,12.23
2022-10-01T14:41:42.397Z,9.75
2022-10-01T14:44:59.781Z,12.37
2022-10-01T14:48:18.876Z,9.70
2022-10-01T14:51:44.746Z,11.25
2022-10-01T14:54:57.021Z,9.08
2022-10-01T15:01:15.218Z,12.00
2022-10-01T15:04:31.342Z,11.18
2022-10-01T15:07:36.791Z,12.47
2022-10-01T15:10:42.627Z,14.15
2022-10-01T15:13:50.310Z,8.90
2022-10-01T15:16:56.092Z,10.53
2022-10-01T15:20:03.254Z,16.48
2022-10-01T15:23:08.180Z,13.38
2022-10-01T15:26:17.628Z,14.55
2022-10-01T15:29:27.745Z,28.73
2022-10-01T15:32:36.440Z,18.10
2022-10-01T15:35:42.486Z,16.62
2022-10-01T15:38:50.564Z,15.93
2022-10-01T15:41:56.303Z,24.25
2022-10-01T15:45:03.558Z,21.17
2022-10-01T15:48:09.364Z,17.55
2022-10-01T15:51:19.451Z,25.90
2022-10-01T15:54:26.532Z,23.47
2022-10-01T15:57:39.747Z,26.87
2022-10-01T16:00:40.436Z,14.80
2022-10-01T16:03:48.625Z,21.45
2022-10-01T16:07:01.642Z,18.82
2022-10-01T16:10:13.321Z,19.90
2022-10-01T16:13:46.023Z,20.45
2022-10-01T16:16:53.413Z,32.95
2022-10-01T16:20:07.627Z,17.73
2022-10-01T16:23:55.920Z,18.07
2022-10-01T16:27:03.815Z,17.87
2022-10-01T16:30:23.485Z,28.30
2022-10-01T16:33:30.975Z,21.40
2022-10-01T16:36:37.579Z,27.80
2022-10-01T16:39:43.825Z,24.77
2022-10-01T16:42:51.505Z,28.42
2022-10-01T16:45:57.166Z,31.40
2022-10-01T16:49:04.301Z,29.90
2022-10-01T16:52:09.743Z,37.98
2022-10-01T16:55:16.235Z,37.88
2022-10-01T16:58:23.699Z,30.50
2022-10-01T17:01:31.140Z,34.90
2022-10-01T17:04:40.524Z,41.50
2022-10-01T17:07:46.767Z,44.98
2022-10-01T17:11:10.627Z,44.93
2022-10-01T17:14:15.130Z,41.10
2022-10-01T17:17:20.002Z,34.98
2022-10-01T17:20:26.163Z,40.38
2022-10-01T17:23:33.889Z,41.25
2022-10-01T17:26:39.132Z,42.13
2022-10-01T17:29:47.278Z,44.05
2022-10-01T17:32:53.170Z,37.98
2022-10-01T17:36:05.180Z,38.40
2022-10-01T17:39:12.435Z,33.40
2022-10-01T17:42:19.779Z,33.78
2022-10-01T17:45:26.074Z,31.95
2022-10-01T17:48:31.986Z,35.50
2022-10-01T17:51:37.109Z,33.45
2022-10-01T17:54:42.125Z,37.00
2022-10-01T17:57:47.540Z,33.55
2022-10-01T18:00:56.689Z,36.98
2022-10-01T18:04:11.691Z,185.35
2022-10-01T18:07:17.456Z,35.25
2022-10-01T18:10:24.540Z,32.15
2022-10-01T18:13:29.260Z,31.15
2022-10-01T18:16:36.313Z,28.77
2022-10-01T18:19:53.244Z,31.77
2022-10-01T18:22:52.939Z,24.85
2022-10-01T18:25:59.866Z,24.37
2022-10-01T18:29:05.884Z,25.80
2022-10-01T18:32:25.590Z,26.02
2022-10-01T18:35:37.466Z,31.77
2022-10-01T18:38:46.078Z,32.55
2022-10-01T18:41:54.172Z,28.10
2022-10-01T18:45:14.145Z,20.62
2022-10-01T18:48:37.801Z,19.52
2022-10-01T18:52:00.228Z,21.95
2022-10-01T18:55:28.625Z,19.95
2022-10-01T18:58:53.269Z,16.95
2022-10-01T19:02:12.536Z,20.68
2022-10-01T19:06:02.105Z,23.15
2022-10-01T19:09:51.607Z,17.35
2022-10-01T19:13:28.988Z,21.80
2022-10-01T19:17:09.850Z,20.40
2022-10-01T19:20:51.218Z,15.55
2022-10-01T19:24:23.419Z,14.23
2022-10-01T19:27:33.398Z,20.20
2022-10-01T19:30:39.300Z,16.77
2022-10-01T19:33:46.127Z,20.55
2022-10-01T19:36:56.190Z,15.88
2022-10-01T19:40:02.739Z,16.12
2022-10-01T19:43:33.143Z,28.83
2022-10-01T19:46:53.701Z,20.95
2022-10-01T19:50:01.653Z,24.60
2022-10-01T19:53:11.955Z,20.02
2022-10-01T19:56:18.488Z,17.45
2022-10-01T19:59:29.455Z,20.85
2022-10-01T20:02:52.338Z,15.03
2022-10-01T20:09:43.041Z,16.87
2022-10-01T20:13:06.584Z,19.17
2022-10-01T20:16:43.157Z,16.45
2022-10-01T20:19:56.622Z,17.35
2022-10-01T20:23:19.418Z,18.65
2022-10-01T20:30:17.379Z,17.57
2022-10-01T20:33:31.823Z,34.73
2022-10-01T20:36:43.823Z,24.57
2022-10-01T20:40:03.398Z,20.08
2022-10-01T20:43:21.186Z,17.37
2022-10-01T20:47:02.763Z,21.85
2022-10-01T20:50:17.265Z,18.85
2022-10-01T20:53:48.200Z,19.50
2022-10-01T20:57:01.356Z,17.48
2022-10-01T21:00:09.377Z,19.35
2022-10-01T21:03:46.372Z,21.05
2022-10-01T21:07:08.795Z,16.07
2022-10-01T21:10:15.683Z,16.12
2022-10-01T21:13:32.513Z,18.00
2022-10-01T21:16:49.370Z,17.32
2022-10-01T21:20:20.825Z,18.07
2022-10-01T21:23:41.767Z,20.77
2022-10-01T21:27:04.176Z,26.20
2022-10-01T21:30:16.403Z,23.73
2022-10-01T21:33:30.686Z,26.27
2022-10-01T21:37:04.087Z,25.95
2022-10-01T21:40:24.270Z,26.62
2022-10-01T21:43:35.727Z,25.92
2022-10-01T21:46:48.410Z,27.00
2022-10-01T21:50:27.672Z,29.70
2022-10-01T21:53:54.059Z,34.45
2022-10-01T21:57:38.155Z,28.40
2022-10-01T22:00:44.372Z,28.62
2022-10-01T22:03:54.783Z,31.75
2022-10-01T22:07:12.094Z,29.12
2022-10-01T22:10:27.837Z,27.45
2022-10-01T22:13:42.145Z,32.78
2022-10-01T22:16:52.815Z,30.50
2022-10-01T22:20:07.215Z,33.20
2022-10-01T22:23:18.725Z,31.55
2022-10-01T22:26:34.583Z,40.45
2022-10-01T22:29:43.969Z,36.10
2022-10-01T22:33:11.300Z,31.90
2022-10-01T22:36:27.994Z,32.55
2022-10-01T22:39:45.572Z,37.08
2022-10-01T22:43:02.408Z,34.05
2022-10-01T22:47:06.478Z,38.58
2022-10-01T22:50:34.397Z,31.80
2022-10-01T22:54:10.235Z,34.83
2022-10-01T22:57:46.983Z,41.35
2022-10-01T23:01:32.746Z,37.93
2022-10-01T23:05:06.090Z,34.58
2022-10-01T23:08:39.880Z,36.35
2022-10-01T23:12:01.317Z,34.63
2022-10-01T23:15:38.153Z,31.95
2022-10-01T23:19:00.999Z,35.33
2022-10-01T23:22:14.328Z,33.05
2022-10-01T23:25:46.460Z,34.38
2022-10-01T23:29:24.908Z,39.60
2022-10-01T23:32:51.401Z,38.65
2022-10-01T23:36:14.681Z,39.33
2022-10-01T23:39:51.231Z,38.60
2022-10-01T23:43:02.651Z,36.53
2022-10-01T23:46:22.516Z,37.35
2022-10-01T23:49:31.616Z,37.30
2022-10-01T23:52:56.535Z,45.43
2022-10-01T23:56:49.383Z,41.63
